Time;durP1;ratioP1;P1;durP2;ratioP2;P2;SDS_P1;SDS_P2;PMS_P1;PMS_P2;Temp;Humidity;BMP_temperature;BMP_pressure;BME280_temperature;BME280_humidity;BME280_pressure;Samples;Min_cycle;Max_cycle;Signal;HPM_P1;HPM_P2
2022/10/20 00:01:19;;;;;;;3.97;3.27;;;3.10;99.90;;;;;;8394716;28;20299;-68
2022/10/20 00:05:20;;;;;;;5.30;3.40;;;3.00;99.90;;;;;;8395762;28;20200;-70
2022/10/20 00:09:21;;;;;;;5.37;3.07;;;2.90;99.90;;;;;;8412909;28;20211;-68
2022/10/20 00:13:23;;;;;;;6.00;3.73;;;2.80;99.90;;;;;;8395418;28;20192;-68
2022/10/20 00:17:24;;;;;;;6.93;3.73;;;2.70;99.90;;;;;;8413557;28;20214;-69
2022/10/20 00:21:27;;;;;;;4.57;3.27;;;2.70;99.90;;;;;;8392952;28;20501;-68
2022/10/20 00:25:28;;;;;;;5.20;2.80;;;2.60;99.90;;;;;;8410979;28;20184;-69
2022/10/20 00:29:29;;;;;;;6.17;3.80;;;2.50;99.90;;;;;;8394566;28;20184;-69
2022/10/20 00:33:30;;;;;;;5.03;3.53;;;2.40;99.90;;;;;;8394885;28;20527;-69
2022/10/20 00:37:31;;;;;;;5.47;3.70;;;2.30;99.90;;;;;;8392418;28;20272;-68
2022/10/20 00:41:33;;;;;;;6.07;3.53;;;2.20;99.90;;;;;;8393110;28;20289;-69
2022/10/20 00:45:34;;;;;;;5.33;3.70;;;2.20;99.90;;;;;;8413184;28;20207;-68
2022/10/20 00:49:34;;;;;;;5.70;3.83;;;2.10;99.90;;;;;;8391327;28;20597;-69
2022/10/20 00:53:35;;;;;;;7.07;4.07;;;2.00;99.90;;;;;;8409776;28;20188;-68
2022/10/20 00:57:37;;;;;;;5.00;3.67;;;1.90;99.90;;;;;;8391619;28;20204;-69
2022/10/20 01:01:39;;;;;;;6.50;4.60;;;1.90;99.90;;;;;;8410459;28;20251;-69
2022/10/20 01:05:39;;;;;;;5.17;4.07;;;1.90;99.90;;;;;;8409145;28;20184;-69
2022/10/20 01:09:40;;;;;;;7.77;4.60;;;1.90;99.90;;;;;;8391477;28;20286;-69
2022/10/20 01:14:06;;;;;;;5.67;4.40;;;1.90;99.90;;;;;;8392400;28;20662;-70
2022/10/20 01:18:12;;;;;;;8.77;5.13;;;1.80;99.90;;;;;;8392141;28;20193;-70
2022/10/20 01:22:25;;;;;;;6.77;4.70;;;1.80;99.90;;;;;;8388784;28;21140;-69
2022/10/20 01:26:53;;;;;;;6.33;4.63;;;1.90;99.90;;;;;;8391837;28;20184;-69
2022/10/20 01:31:00;;;;;;;5.23;3.87;;;1.80;99.90;;;;;;8407359;28;20984;-69
2022/10/20 01:35:21;;;;;;;8.40;4.70;;;1.80;99.90;;;;;;8408588;28;20407;-69
2022/10/20 01:39:37;;;;;;;6.00;4.47;;;1.70;99.90;;;;;;8391720;28;20212;-69
2022/10/20 01:43:40;;;;;;;7.97;4.17;;;1.60;99.90;;;;;;8391560;28;20181;-69
2022/10/20 01:47:42;;;;;;;6.93;4.07;;;1.50;99.90;;;;;;8407587;28;20196;-70
2022/10/20 01:51:43;;;;;;;6.60;4.60;;;1.40;99.90;;;;;;8389549;28;20275;-71
2022/10/20 01:55:44;;;;;;;7.17;3.60;;;1.30;99.90;;;;;;8409660;28;20242;-69
2022/10/20 02:00:07;;;;;;;5.83;3.67;;;1.20;99.90;;;;;;8391224;28;20220;-69
2022/10/20 02:04:09;;;;;;;6.10;4.77;;;1.20;99.90;;;;;;8410907;28;20200;-69
2022/10/20 02:08:55;;;;;;;4.67;3.40;;;1.20;99.90;;;;;;8413379;28;20185;-69
2022/10/20 02:13:04;;;;;;;4.57;3.37;;;1.10;99.90;;;;;;8411786;28;20236;-69
2022/10/20 02:17:14;;;;;;;7.33;3.57;;;1.00;99.90;;;;;;8412678;28;20279;-69
2022/10/20 02:21:15;;;;;;;5.27;4.20;;;1.00;99.90;;;;;;8391895;28;20200;-70
2022/10/20 02:25:16;;;;;;;5.03;3.77;;;0.90;99.90;;;;;;8414527;28;20226;-69
2022/10/20 02:29:24;;;;;;;4.93;3.63;;;0.80;99.90;;;;;;8395998;28;20355;-69
2022/10/20 02:33:26;;;;;;;5.57;3.87;;;0.70;99.90;;;;;;8397767;28;20204;-69
2022/10/20 02:37:26;;;;;;;5.20;3.60;;;0.70;99.90;;;;;;8393478;28;20291;-69
2022/10/20 02:41:28;;;;;;;8.67;4.33;;;0.70;99.90;;;;;;8414581;28;20356;-69
2022/10/20 02:45:29;;;;;;;9.30;5.33;;;0.70;99.90;;;;;;8396542;28;20272;-69
2022/10/20 02:49:29;;;;;;;13.67;6.50;;;0.70;99.90;;;;;;8390611;28;20192;-69
2022/10/20 02:53:31;;;;;;;8.87;5.50;;;0.60;99.90;;;;;;8396935;28;20196;-69
2022/10/20 02:57:32;;;;;;;5.03;4.07;;;0.60;99.90;;;;;;8411720;28;20295;-71
2022/10/20 03:01:32;;;;;;;5.80;3.80;;;0.50;99.90;;;;;;8396965;28;20215;-69
2022/10/20 03:05:38;;;;;;;6.50;4.17;;;0.40;99.90;;;;;;8413802;28;20238;-69
2022/10/20 03:09:39;;;;;;;6.80;4.67;;;0.40;99.90;;;;;;8395377;28;20188;-74
2022/10/20 03:13:40;;;;;;;5.53;3.73;;;0.40;99.90;;;;;;8413934;28;20507;-69
2022/10/20 03:17:40;;;;;;;6.43;3.97;;;0.30;99.90;;;;;;8413650;28;20683;-69
2022/10/20 03:21:41;;;;;;;8.63;4.07;;;0.30;99.90;;;;;;8395058;28;20508;-69
2022/10/20 03:25:42;;;;;;;6.07;3.63;;;0.20;99.90;;;;;;8389061;28;20268;-69
2022/10/20 03:29:42;;;;;;;8.80;5.13;;;0.20;99.90;;;;;;8396251;28;20185;-69
2022/10/20 03:33:43;;;;;;;13.63;6.57;;;0.20;99.90;;;;;;8412510;28;20185;-69
2022/10/20 03:37:44;;;;;;;17.70;9.10;;;0.20;99.90;;;;;;8394988;28;20188;-68
2022/10/20 03:41:45;;;;;;;18.90;10.37;;;0.30;99.90;;;;;;8411690;28;20218;-70
2022/10/20 03:45:45;;;;;;;18.10;9.37;;;0.30;99.90;;;;;;8415014;28;20199;-69
2022/10/20 03:49:46;;;;;;;15.67;7.20;;;0.40;99.90;;;;;;8390661;28;20423;-69
2022/10/20 03:53:47;;;;;;;8.73;5.33;;;0.30;99.90;;;;;;8393653;28;20257;-71
2022/10/20 03:57:48;;;;;;;6.90;4.73;;;0.20;99.90;;;;;;8410657;28;20208;-69
2022/10/20 04:01:49;;;;;;;8.60;5.03;;;0.00;99.90;;;;;;8409747;28;20222;-69
2022/10/20 04:05:49;;;;;;;8.30;4.90;;;-0.10;99.90;;;;;;8412453;28;20172;-68
2022/10/20 04:09:50;;;;;;;8.07;4.50;;;-0.10;99.90;;;;;;8392941;28;20184;-69
2022/10/20 04:13:51;;;;;;;9.60;4.77;;;-0.20;99.90;;;;;;8412711;28;20630;-69
2022/10/20 04:17:52;;;;;;;13.70;6.10;;;-0.20;99.90;;;;;;8393492;28;20267;-69
2022/10/20 04:21:53;;;;;;;8.30;5.00;;;-0.20;99.90;;;;;;8393110;28;20212;-69
2022/10/20 04:25:54;;;;;;;12.80;7.40;;;-0.30;99.90;;;;;;8386896;28;20652;-69
2022/10/20 04:29:54;;;;;;;13.90;8.47;;;-0.30;99.90;;;;;;8392373;28;20219;-69
2022/10/20 04:33:55;;;;;;;15.90;8.73;;;-0.20;99.90;;;;;;8394124;28;20188;-69
2022/10/20 04:37:56;;;;;;;10.60;6.33;;;-0.20;99.90;;;;;;8409907;28;20279;-72
2022/10/20 04:41:57;;;;;;;10.53;6.00;;;-0.30;99.90;;;;;;8409768;28;20239;-69
2022/10/20 04:46:03;;;;;;;8.80;5.40;;;-0.30;99.90;;;;;;8409428;28;20189;-69
2022/10/20 04:50:04;;;;;;;6.93;5.30;;;-0.40;99.90;;;;;;8412181;28;20191;-69
2022/10/20 04:54:05;;;;;;;10.70;7.37;;;-0.50;99.90;;;;;;8410138;28;20184;-69
2022/10/20 04:58:06;;;;;;;21.37;10.97;;;-0.50;99.90;;;;;;8410352;28;20204;-69
2022/10/20 05:02:07;;;;;;;11.63;7.27;;;-0.40;99.90;;;;;;8394651;28;20506;-69
2022/10/20 05:06:11;;;;;;;11.03;7.00;;;-0.20;99.90;;;;;;8410569;28;20248;-69
2022/10/20 05:10:12;;;;;;;13.10;7.93;;;0.20;99.90;;;;;;8411188;28;20176;-69
2022/10/20 05:14:13;;;;;;;15.50;9.53;;;0.50;99.90;;;;;;8398595;28;20188;-69
2022/10/20 05:18:13;;;;;;;18.33;11.33;;;0.90;99.90;;;;;;8410364;28;20207;-69
2022/10/20 05:22:14;;;;;;;15.90;11.00;;;1.20;99.90;;;;;;8393171;28;20212;-69
2022/10/20 05:26:17;;;;;;;19.07;12.90;;;1.50;99.90;;;;;;8391778;28;20188;-69
2022/10/20 05:30:18;;;;;;;19.80;11.70;;;1.80;99.90;;;;;;8411034;28;20184;-69
2022/10/20 05:34:18;;;;;;;17.60;11.50;;;2.00;99.90;;;;;;8393725;28;20196;-69
2022/10/20 05:38:19;;;;;;;18.77;11.50;;;2.20;99.90;;;;;;8408197;28;20192;-69
2022/10/20 05:42:20;;;;;;;21.33;13.17;;;2.40;99.90;;;;;;8397096;28;20295;-69
2022/10/20 05:46:21;;;;;;;22.63;14.00;;;2.60;99.90;;;;;;8396388;28;20188;-70
2022/10/20 05:50:22;;;;;;;25.90;15.57;;;2.80;99.90;;;;;;8398893;28;20260;-69
2022/10/20 05:54:22;;;;;;;39.47;15.67;;;2.90;99.90;;;;;;8417030;28;20192;-69
2022/10/20 05:58:23;;;;;;;30.93;17.17;;;3.10;99.90;;;;;;8411629;28;20206;-69
2022/10/20 06:02:24;;;;;;;23.80;16.43;;;3.30;99.90;;;;;;8414623;28;20212;-69
2022/10/20 06:06:27;;;;;;;30.77;18.10;;;3.60;99.90;;;;;;8415884;28;20195;-69
2022/10/20 06:10:28;;;;;;;28.30;18.27;;;3.80;99.90;;;;;;8417011;28;20196;-69
2022/10/20 06:14:29;;;;;;;32.63;18.87;;;3.90;99.90;;;;;;8397193;28;20233;-70
2022/10/20 06:18:31;;;;;;;39.07;20.30;;;4.00;99.90;;;;;;8396218;28;20294;-69
2022/10/20 06:22:31;;;;;;;23.27;16.23;;;4.20;99.90;;;;;;8417927;28;20257;-70
2022/10/20 06:26:37;;;;;;;28.77;17.47;;;4.30;99.90;;;;;;8414685;28;20199;-69
2022/10/20 06:30:37;;;;;;;34.73;16.10;;;4.40;99.90;;;;;;8412774;28;20195;-69
2022/10/20 06:34:38;;;;;;;25.80;16.33;;;4.50;99.90;;;;;;8398938;28;20201;-69
2022/10/20 06:38:40;;;;;;;32.47;16.40;;;4.50;99.90;;;;;;8414406;28;20214;-69
2022/10/20 06:42:41;;;;;;;30.27;16.73;;;4.60;99.90;;;;;;8416215;28;20208;-69
2022/10/20 06:46:42;;;;;;;27.57;16.27;;;4.70;99.90;;;;;;8414463;28;20184;-69
2022/10/20 06:50:43;;;;;;;25.83;16.50;;;4.90;99.90;;;;;;8414553;28;21358;-70
2022/10/20 06:54:44;;;;;;;38.10;19.63;;;5.00;99.90;;;;;;8395901;28;20188;-69
2022/10/20 06:58:46;;;;;;;28.40;17.07;;;5.20;99.90;;;;;;8413511;28;20205;-69
2022/10/20 07:02:47;;;;;;;34.23;18.93;;;5.20;99.90;;;;;;8415925;28;20304;-69
2022/10/20 07:06:48;;;;;;;34.43;19.03;;;5.20;99.90;;;;;;8411449;28;20192;-68
2022/10/20 07:11:02;;;;;;;28.10;18.27;;;5.30;99.90;;;;;;8397806;28;20276;-69
2022/10/20 07:15:03;;;;;;;31.53;19.07;;;5.40;99.90;;;;;;8397079;28;20188;-70
2022/10/20 07:19:04;;;;;;;34.97;20.30;;;5.50;99.90;;;;;;8413813;28;20192;-70
2022/10/20 07:23:06;;;;;;;32.47;20.13;;;5.60;99.90;;;;;;8414056;28;20222;-70
2022/10/20 07:27:06;;;;;;;39.60;19.43;;;5.60;99.90;;;;;;8392429;28;20462;-70
2022/10/20 07:31:13;;;;;;;35.67;20.70;;;5.80;99.90;;;;;;8413172;28;20192;-69
2022/10/20 07:35:14;;;;;;;29.93;19.50;;;5.90;99.90;;;;;;8399353;28;20185;-69
2022/10/20 07:39:16;;;;;;;30.63;18.80;;;6.00;99.90;;;;;;8413053;28;20291;-70
2022/10/20 07:43:16;;;;;;;35.60;19.37;;;6.20;99.90;;;;;;8411768;28;20180;-69
2022/10/20 07:47:17;;;;;;;29.63;18.00;;;6.40;99.90;;;;;;8413169;28;20208;-69
2022/10/20 07:51:24;;;;;;;28.50;17.80;;;6.50;99.90;;;;;;8394949;28;20520;-66
2022/10/20 07:55:25;;;;;;;30.87;18.50;;;6.60;99.90;;;;;;8396983;28;20184;-67
2022/10/20 07:59:25;;;;;;;27.57;18.57;;;6.70;99.90;;;;;;8392850;28;20200;-67
2022/10/20 08:03:26;;;;;;;27.93;18.20;;;6.90;99.90;;;;;;8395054;28;20641;-67
2022/10/20 08:07:27;;;;;;;26.93;19.20;;;7.30;99.90;;;;;;8412399;28;20187;-67
2022/10/20 08:11:28;;;;;;;31.97;19.07;;;7.50;99.90;;;;;;8395151;28;20191;-67
2022/10/20 08:15:29;;;;;;;29.37;19.47;;;7.90;99.90;;;;;;8394778;28;20180;-67
2022/10/20 08:19:30;;;;;;;25.07;17.30;;;7.90;99.90;;;;;;8411768;28;20558;-66
2022/10/20 08:23:30;;;;;;;30.10;18.90;;;8.00;99.90;;;;;;8412259;28;20192;-67
2022/10/20 08:27:31;;;;;;;23.57;17.03;;;8.30;99.90;;;;;;8394780;28;20177;-70
2022/10/20 08:31:32;;;;;;;22.07;16.20;;;8.60;99.90;;;;;;8410549;28;20173;-70
2022/10/20 08:35:32;;;;;;;21.57;16.17;;;9.00;99.90;;;;;;8413287;28;20185;-69
2022/10/20 08:39:33;;;;;;;19.47;15.30;;;9.20;99.90;;;;;;8394203;28;20208;-70
2022/10/20 08:43:39;;;;;;;16.33;12.90;;;9.00;99.90;;;;;;8410479;28;20184;-71
2022/10/20 08:47:40;;;;;;;18.43;14.07;;;8.80;99.90;;;;;;8411931;28;20176;-70
2022/10/20 08:51:41;;;;;;;19.30;13.27;;;8.80;99.90;;;;;;8410532;28;20223;-70
2022/10/20 08:55:43;;;;;;;17.30;12.80;;;8.70;99.90;;;;;;8394641;28;20180;-68
2022/10/20 08:59:44;;;;;;;16.27;12.23;;;8.80;99.90;;;;;;8394448;28;20223;-68
2022/10/20 09:03:50;;;;;;;21.83;14.90;;;8.90;99.90;;;;;;8397308;28;20238;-69
2022/10/20 09:07:53;;;;;;;16.47;12.73;;;9.00;99.90;;;;;;8392972;28;20177;-68
2022/10/20 09:11:58;;;;;;;17.40;12.83;;;9.10;99.90;;;;;;8416134;28;20568;-69
2022/10/20 09:16:04;;;;;;;16.70;11.53;;;9.20;99.90;;;;;;8413030;28;20181;-69
2022/10/20 09:20:22;;;;;;;16.40;11.83;;;9.30;99.90;;;;;;8411326;28;20197;-68
2022/10/20 09:24:26;;;;;;;15.80;11.47;;;9.40;99.90;;;;;;8394735;28;20190;-69
2022/10/20 09:28:27;;;;;;;15.67;11.57;;;9.60;99.90;;;;;;8415132;28;20260;-70
2022/10/20 09:32:34;;;;;;;14.53;10.97;;;9.60;99.90;;;;;;8397583;28;20251;-69
2022/10/20 09:36:35;;;;;;;14.17;10.90;;;9.80;99.90;;;;;;8393128;28;20178;-68
2022/10/20 09:40:53;;;;;;;15.03;12.43;;;9.80;99.90;;;;;;8413343;28;20190;-69
2022/10/20 09:45:03;;;;;;;16.10;12.60;;;9.90;99.90;;;;;;8413973;28;20204;-69
2022/10/20 09:49:06;;;;;;;15.00;11.80;;;10.10;99.90;;;;;;8415333;28;20527;-71
2022/10/20 09:53:17;;;;;;;13.50;10.90;;;10.20;99.90;;;;;;8397689;28;20183;-69
2022/10/20 09:57:21;;;;;;;14.13;10.97;;;10.30;99.90;;;;;;8386820;28;20211;-68
2022/10/20 10:01:22;;;;;;;17.27;11.70;;;10.40;1.00;;;;;;8410897;28;20215;-68
2022/10/20 10:05:32;;;;;;;15.17;11.03;;;10.40;99.90;;;;;;8394895;28;20176;-69
2022/10/20 10:09:36;;;;;;;13.53;11.13;;;10.60;99.90;;;;;;8395335;28;20199;-70
2022/10/20 10:13:42;;;;;;;13.80;11.67;;;10.60;33.70;;;;;;8395146;28;20175;-70
2022/10/20 10:17:43;;;;;;;14.13;11.23;;;10.70;99.90;;;;;;8395690;28;20217;-69
2022/10/20 10:21:52;;;;;;;14.70;10.50;;;10.80;99.90;;;;;;8393990;28;20208;-70
2022/10/20 10:25:54;;;;;;;13.73;9.90;;;10.90;99.90;;;;;;8413563;28;20181;-70
2022/10/20 10:30:23;;;;;;;15.50;10.97;;;11.10;60.60;;;;;;8419780;28;20268;-68
2022/10/20 10:34:30;;;;;;;12.17;9.53;;;11.20;1.00;;;;;;8421155;28;20764;-70
2022/10/20 10:38:31;;;;;;;13.60;8.20;;;11.40;99.90;;;;;;8418710;28;20184;-72
2022/10/20 10:42:44;;;;;;;12.43;8.83;;;11.50;99.90;;;;;;8420576;28;20211;-69
2022/10/20 10:47:02;;;;;;;12.43;7.93;;;11.60;99.90;;;;;;8417029;28;20172;-69
2022/10/20 10:51:18;;;;;;;12.33;8.33;;;11.70;99.90;;;;;;8418929;28;20188;-70
2022/10/20 10:55:30;;;;;;;9.67;7.83;;;11.70;99.90;;;;;;8419401;28;20188;-69
2022/10/20 10:59:35;;;;;;;10.57;7.57;;;11.80;99.90;;;;;;8418020;28;20302;-69
2022/10/20 11:04:12;;;;;;;9.73;7.67;;;11.90;99.90;;;;;;8415618;28;20245;-69
2022/10/20 11:08:50;;;;;;;9.90;7.57;;;12.00;1.00;;;;;;8399954;28;20184;-69
2022/10/20 11:13:17;;;;;;;11.53;7.63;;;12.10;1.00;;;;;;8414651;28;20189;-69
2022/10/20 11:17:40;;;;;;;11.67;7.40;;;12.20;1.00;;;;;;8380444;28;20240;-70
2022/10/20 11:22:15;;;;;;;9.30;7.00;;;12.30;1.00;;;;;;8403945;28;20223;-69
2022/10/20 11:26:25;;;;;;;10.43;7.57;;;12.30;1.00;;;;;;8417118;28;20176;-69
2022/10/20 11:30:26;;;;;;;10.13;6.57;;;12.30;1.00;;;;;;8419511;28;20204;-71
2022/10/20 11:34:37;;;;;;;8.70;7.40;;;12.40;99.90;;;;;;8418398;28;20177;-68
2022/10/20 11:38:52;;;;;;;7.57;6.73;;;12.60;99.90;;;;;;8411707;28;20471;-70
2022/10/20 11:43:22;;;;;;;8.37;6.47;;;12.60;99.90;;;;;;8399669;28;20211;-69
2022/10/20 11:47:40;;;;;;;7.87;6.13;;;12.60;99.90;;;;;;8398227;28;20173;-70
2022/10/20 11:52:07;;;;;;;9.57;6.93;;;12.70;99.90;;;;;;8393589;28;20185;-68
2022/10/20 11:56:32;;;;;;;7.23;5.83;;;12.70;99.90;;;;;;8398000;28;20184;-70
2022/10/20 12:01:23;;;;;;;9.77;6.03;;;12.50;99.90;;;;;;8393106;28;20208;-70
2022/10/20 12:06:08;;;;;;;10.87;6.37;;;12.40;1.00;;;;;;8401245;28;20192;-70
2022/10/20 12:10:30;;;;;;;10.13;6.30;;;12.40;99.90;;;;;;8411539;28;20292;-69
2022/10/20 12:14:43;;;;;;;8.30;5.87;;;12.40;1.00;;;;;;8396118;28;20192;-68
2022/10/20 12:19:05;;;;;;;7.83;6.00;;;12.40;1.00;;;;;;8397341;28;20187;-69
2022/10/20 12:23:25;;;;;;;6.33;4.53;;;12.40;99.90;;;;;;8396798;28;20204;-69
2022/10/20 12:27:27;;;;;;;7.10;5.30;;;12.50;1.00;;;;;;8397550;28;20209;-69
2022/10/20 12:32:05;;;;;;;6.40;4.90;;;12.60;99.90;;;;;;8397717;28;20282;-70
2022/10/20 12:36:17;;;;;;;11.37;8.57;;;12.60;99.90;;;;;;8413262;28;20185;-69
2022/10/20 12:40:25;;;;;;;6.20;4.83;;;12.60;99.90;;;;;;8395893;28;20458;-70
2022/10/20 12:44:30;;;;;;;7.30;5.07;;;12.60;99.90;;;;;;8415985;28;20242;-69
2022/10/20 12:48:34;;;;;;;5.37;4.20;;;12.60;99.90;;;;;;8397741;28;20180;-70
2022/10/20 12:52:38;;;;;;;5.90;4.10;;;12.70;99.90;;;;;;8413039;28;20188;-69
2022/10/20 12:56:40;;;;;;;5.37;4.13;;;12.70;99.90;;;;;;8401493;28;20224;-69
2022/10/20 13:00:50;;;;;;;7.30;4.17;;;12.70;99.90;;;;;;8413245;28;20294;-70
2022/10/20 13:05:05;;;;;;;3.90;3.40;;;12.70;99.90;;;;;;8394356;28;20188;-70
2022/10/20 13:09:06;;;;;;;8.20;3.33;;;12.70;99.90;;;;;;8394385;28;20177;-70
2022/10/20 13:13:06;;;;;;;4.00;3.20;;;12.70;99.90;;;;;;8392101;28;20188;-69
2022/10/20 13:17:52;;;;;;;4.67;3.40;;;12.80;99.90;;;;;;8393753;28;20191;-71
2022/10/20 13:21:53;;;;;;;5.83;3.50;;;12.80;99.90;;;;;;8293342;28;20220;-70
2022/10/20 13:25:57;;;;;;;7.90;3.67;;;12.80;99.90;;;;;;8410314;28;20485;-69
2022/10/20 13:29:58;;;;;;;21.77;19.97;;;12.80;99.90;;;;;;8410322;28;20185;-70
2022/10/20 13:34:21;;;;;;;20.33;18.53;;;12.90;99.90;;;;;;8412157;28;20183;-69
2022/10/20 13:39:00;;;;;;;6.27;4.17;;;12.80;99.90;;;;;;8392115;28;20287;-68
2022/10/20 13:43:20;;;;;;;4.80;3.83;;;12.90;99.90;;;;;;8409138;28;20246;-69
2022/10/20 13:47:26;;;;;;;22.60;12.87;;;12.80;99.90;;;;;;8395419;28;20175;-70
2022/10/20 13:51:39;;;;;;;6.93;3.90;;;12.80;99.90;;;;;;8415258;28;20248;-73
2022/10/20 13:56:19;;;;;;;5.87;4.30;;;12.80;99.90;;;;;;8413170;28;20495;-69
2022/10/20 14:00:26;;;;;;;17.30;12.50;;;12.70;99.90;;;;;;8397249;28;20216;-70
2022/10/20 14:04:33;;;;;;;10.40;4.87;;;12.70;99.90;;;;;;8422105;28;20254;-70
2022/10/20 14:08:42;;;;;;;12.77;7.10;;;12.60;99.90;;;;;;8419323;28;20222;-70
2022/10/20 14:12:43;;;;;;;10.00;7.03;;;12.60;99.90;;;;;;8417548;28;20233;-68
2022/10/20 14:17:19;;;;;;;5.97;3.33;;;12.50;99.90;;;;;;8419634;28;20219;-69
2022/10/20 14:21:20;;;;;;;8.50;3.87;;;12.40;99.90;;;;;;8419432;28;20212;-69
2022/10/20 14:25:22;;;;;;;6.50;4.50;;;12.30;99.90;;;;;;8401601;28;20183;-69
2022/10/20 14:29:25;;;;;;;5.53;3.90;;;12.30;99.90;;;;;;8418025;28;20192;-69
2022/10/20 14:33:26;;;;;;;9.13;5.73;;;12.20;99.90;;;;;;8403285;28;20188;-70
2022/10/20 14:37:39;;;;;;;6.50;4.43;;;12.20;99.90;;;;;;8399262;28;20191;-69
2022/10/20 14:41:45;;;;;;;4.13;2.90;;;12.10;99.90;;;;;;8397669;28;20437;-69
2022/10/20 14:46:00;;;;;;;9.43;3.80;;;12.10;99.90;;;;;;8404701;28;20458;-70
2022/10/20 14:50:01;;;;;;;4.93;3.57;;;12.00;99.90;;;;;;8416723;28;20184;-69
2022/10/20 14:54:38;;;;;;;11.40;4.87;;;11.90;99.90;;;;;;8415813;28;20189;-69
2022/10/20 14:58:55;;;;;;;16.37;8.23;;;11.70;99.90;;;;;;8369737;28;20256;-68
2022/10/20 15:03:00;;;;;;;7.70;3.63;;;11.50;99.90;;;;;;8398561;28;20218;-69
2022/10/20 15:07:13;;;;;;;10.20;6.17;;;11.30;99.90;;;;;;8414711;28;20177;-69
2022/10/20 15:11:25;;;;;;;12.73;8.17;;;11.20;99.90;;;;;;8417462;28;20191;-69
2022/10/20 15:15:34;;;;;;;15.80;10.20;;;11.10;99.90;;;;;;8399574;28;20184;-72
2022/10/20 15:19:36;;;;;;;10.77;6.10;;;11.00;99.90;;;;;;8413863;28;20204;-70
2022/10/20 15:23:36;;;;;;;11.30;6.33;;;10.90;99.90;;;;;;8416868;28;20205;-69
2022/10/20 15:27:39;;;;;;;7.07;5.03;;;10.70;99.90;;;;;;8392689;28;20177;-69
2022/10/20 15:31:41;;;;;;;6.93;5.27;;;10.50;99.90;;;;;;8398641;28;20217;-69
2022/10/20 15:35:45;;;;;;;8.97;6.57;;;10.40;99.90;;;;;;8396481;28;20177;-69
2022/10/20 15:39:46;;;;;;;6.90;5.10;;;10.30;99.90;;;;;;8413629;28;20188;-70
2022/10/20 15:43:47;;;;;;;8.47;5.20;;;10.10;99.90;;;;;;8398972;28;20218;-69
2022/10/20 15:47:48;;;;;;;8.50;4.90;;;9.90;1.00;;;;;;8414263;28;20274;-69
2022/10/20 15:51:49;;;;;;;10.40;5.33;;;9.70;1.00;;;;;;8394413;28;20187;-69
2022/10/20 15:55:50;;;;;;;7.97;5.40;;;9.50;1.00;;;;;;8414812;28;20188;-68
2022/10/20 15:59:51;;;;;;;8.60;5.00;;;9.30;21.30;;;;;;8393892;28;20204;-69
2022/10/20 16:03:51;;;;;;;15.63;9.10;;;9.20;85.00;;;;;;8397152;28;20200;-69
2022/10/20 16:07:54;;;;;;;19.67;11.13;;;9.10;99.90;;;;;;8391354;28;20185;-68
2022/10/20 16:11:55;;;;;;;19.80;11.00;;;9.00;99.90;;;;;;8412021;28;20195;-69
2022/10/20 16:15:55;;;;;;;18.43;12.37;;;8.90;99.90;;;;;;8396509;28;20192;-68
2022/10/20 16:19:56;;;;;;;15.80;11.10;;;8.80;99.90;;;;;;8412894;28;20227;-69
2022/10/20 16:23:57;;;;;;;16.37;11.07;;;8.70;99.90;;;;;;8392646;28;20173;-68
2022/10/20 16:27:58;;;;;;;15.83;10.80;;;8.70;99.90;;;;;;8392988;28;20205;-68
2022/10/20 16:31:59;;;;;;;10.73;8.53;;;8.60;99.90;;;;;;8413510;28;20195;-68
2022/10/20 16:36:05;;;;;;;9.80;7.70;;;8.50;99.90;;;;;;8411678;28;20788;-68
2022/10/20 16:40:06;;;;;;;11.47;8.60;;;8.50;99.90;;;;;;8412600;28;20324;-69
2022/10/20 16:44:07;;;;;;;10.53;7.77;;;8.40;99.90;;;;;;8392798;28;20180;-69
2022/10/20 16:48:08;;;;;;;14.03;10.53;;;8.30;99.90;;;;;;8394161;28;20238;-68
2022/10/20 16:52:09;;;;;;;17.30;11.43;;;8.20;99.90;;;;;;8392241;28;20192;-68
2022/10/20 16:56:10;;;;;;;36.77;20.67;;;8.10;99.90;;;;;;8409581;28;20227;-69
2022/10/20 17:00:12;;;;;;;16.87;9.47;;;8.10;99.90;;;;;;8392652;28;20208;-68
2022/10/20 17:04:13;;;;;;;16.20;9.03;;;8.00;99.90;;;;;;8393875;28;20207;-69
2022/10/20 17:08:13;;;;;;;14.50;10.63;;;8.00;99.90;;;;;;8392170;28;20184;-68
2022/10/20 17:12:14;;;;;;;14.17;8.67;;;7.90;99.90;;;;;;8409316;28;20195;-68
2022/10/20 17:16:29;;;;;;;25.43;14.13;;;7.90;99.90;;;;;;8411185;28;20184;-70
2022/10/20 17:20:30;;;;;;;15.03;10.13;;;7.80;99.90;;;;;;8409889;28;20181;-69
2022/10/20 17:24:31;;;;;;;19.70;12.37;;;7.90;99.90;;;;;;8391861;28;20176;-69
2022/10/20 17:28:34;;;;;;;14.43;9.87;;;7.80;99.90;;;;;;8399097;28;20211;-69
2022/10/20 17:32:35;;;;;;;12.73;9.20;;;7.70;99.90;;;;;;8410423;28;20188;-71
2022/10/20 17:36:36;;;;;;;15.73;9.23;;;7.60;99.90;;;;;;8393084;28;20190;-69
2022/10/20 17:40:37;;;;;;;19.13;11.83;;;7.60;1.00;;;;;;8410292;28;20200;-69
2022/10/20 17:44:38;;;;;;;17.53;11.77;;;7.60;1.00;;;;;;8393714;28;20458;-70
2022/10/20 17:48:39;;;;;;;14.93;9.83;;;7.50;1.00;;;;;;8411251;28;20184;-69
2022/10/20 17:52:40;;;;;;;13.67;9.37;;;7.50;1.00;;;;;;8391585;28;20180;-69
2022/10/20 17:56:41;;;;;;;20.50;10.40;;;7.40;5.40;;;;;;8389387;28;20268;-69
2022/10/20 18:00:41;;;;;;;14.33;9.97;;;7.30;99.90;;;;;;8406820;28;20253;-69
2022/10/20 18:04:42;;;;;;;18.97;10.40;;;7.20;99.90;;;;;;8406434;28;20193;-69
2022/10/20 18:08:44;;;;;;;20.93;11.20;;;7.10;99.90;;;;;;8408817;28;20185;-68
2022/10/20 18:12:44;;;;;;;18.47;11.43;;;7.10;99.90;;;;;;8391859;28;20307;-69
2022/10/20 18:16:46;;;;;;;34.87;19.87;;;7.00;99.90;;;;;;8389080;28;20191;-68
2022/10/20 18:20:54;;;;;;;21.20;13.37;;;6.90;1.00;;;;;;8408121;28;20201;-69
2022/10/20 18:24:55;;;;;;;25.50;14.07;;;6.90;1.00;;;;;;8390862;28;20183;-69
2022/10/20 18:28:58;;;;;;;28.20;15.73;;;6.90;43.80;;;;;;8407204;28;20177;-69
2022/10/20 18:32:58;;;;;;;29.23;15.60;;;6.80;78.60;;;;;;8408286;28;20196;-69
2022/10/20 18:37:02;;;;;;;25.07;14.63;;;6.80;99.90;;;;;;8388421;28;20190;-69
2022/10/20 18:41:11;;;;;;;26.23;15.97;;;6.70;99.90;;;;;;8391779;28;20215;-68
2022/10/20 18:45:12;;;;;;;23.97;13.43;;;6.60;99.90;;;;;;8391196;28;20181;-69
2022/10/20 18:49:15;;;;;;;25.93;14.87;;;6.50;1.00;;;;;;8397228;28;20172;-69
2022/10/20 18:53:17;;;;;;;23.47;14.40;;;6.30;1.00;;;;;;8415295;28;20179;-69
2022/10/20 18:57:20;;;;;;;23.50;14.07;;;6.30;99.90;;;;;;8412474;28;20286;-69
2022/10/20 19:01:24;;;;;;;26.73;16.37;;;6.20;99.90;;;;;;8395788;28;20216;-69
2022/10/20 19:05:25;;;;;;;25.17;15.33;;;6.10;1.00;;;;;;8415388;28;20568;-69
2022/10/20 19:09:25;;;;;;;25.30;15.87;;;6.10;1.00;;;;;;8417246;28;20192;-68
2022/10/20 19:13:27;;;;;;;23.87;14.40;;;6.00;1.00;;;;;;8397972;28;20185;-69
2022/10/20 19:17:28;;;;;;;24.47;16.57;;;5.80;1.00;;;;;;8396515;28;20222;-69
2022/10/20 19:21:29;;;;;;;21.40;13.70;;;5.70;99.90;;;;;;8417722;28;20300;-69
2022/10/20 19:25:32;;;;;;;21.40;14.43;;;5.70;99.90;;;;;;8398514;28;20173;-70
2022/10/20 19:29:33;;;;;;;29.93;16.80;;;5.60;99.90;;;;;;8416051;28;20325;-68
2022/10/20 19:33:34;;;;;;;25.53;15.60;;;5.60;99.90;;;;;;8395915;28;20189;-70
2022/10/20 19:37:34;;;;;;;27.03;15.90;;;5.60;99.90;;;;;;8404608;28;20275;-69
2022/10/20 19:41:35;;;;;;;21.13;14.47;;;5.60;99.90;;;;;;8397435;28;20262;-69
2022/10/20 19:45:36;;;;;;;26.70;14.37;;;5.60;99.90;;;;;;8397796;28;20204;-69
2022/10/20 19:49:38;;;;;;;24.17;14.67;;;5.50;1.00;;;;;;8415812;28;20181;-69
2022/10/20 19:53:39;;;;;;;24.20;14.80;;;5.50;99.90;;;;;;8411930;28;20456;-69
2022/10/20 19:57:40;;;;;;;23.50;14.63;;;5.40;1.00;;;;;;8410875;28;20211;-71
2022/10/20 20:01:41;;;;;;;21.73;13.30;;;5.40;1.00;;;;;;8410121;28;20214;-69
2022/10/20 20:05:42;;;;;;;24.20;15.03;;;5.20;99.90;;;;;;8395531;28;20181;-69
2022/10/20 20:09:43;;;;;;;22.77;13.87;;;5.20;99.90;;;;;;8408773;28;20519;-68
2022/10/20 20:13:44;;;;;;;22.53;13.93;;;5.10;99.90;;;;;;8395453;28;20180;-70
2022/10/20 20:17:45;;;;;;;25.67;15.07;;;5.10;99.90;;;;;;8413318;28;20260;-70
2022/10/20 20:21:46;;;;;;;24.47;14.17;;;5.00;99.90;;;;;;8393924;28;20634;-70
2022/10/20 20:25:47;;;;;;;27.10;15.83;;;4.90;1.00;;;;;;8393932;28;20287;-70
2022/10/20 20:29:48;;;;;;;28.60;16.13;;;4.90;1.00;;;;;;8393448;28;20200;-70
2022/10/20 20:33:49;;;;;;;25.20;14.80;;;4.80;99.90;;;;;;8411547;28;20329;-70
2022/10/20 20:37:50;;;;;;;29.27;18.40;;;4.80;1.00;;;;;;8410445;28;20183;-70
2022/10/20 20:41:51;;;;;;;26.63;18.50;;;4.80;99.90;;;;;;8391767;28;20212;-70
2022/10/20 20:45:51;;;;;;;37.97;24.60;;;4.70;99.90;;;;;;8392676;28;20185;-70
2022/10/20 20:49:52;;;;;;;36.97;23.37;;;4.70;99.90;;;;;;8390290;28;20178;-70
2022/10/20 20:53:54;;;;;;;35.93;24.20;;;4.60;99.90;;;;;;8411490;28;20176;-70
2022/10/20 20:57:55;;;;;;;30.20;19.47;;;4.50;99.90;;;;;;8387013;28;20410;-70
2022/10/20 21:01:55;;;;;;;31.07;17.43;;;4.50;1.00;;;;;;8409730;28;20306;-69
2022/10/20 21:05:57;;;;;;;23.90;16.13;;;4.40;1.00;;;;;;8390892;28;20271;-70
2022/10/20 21:09:57;;;;;;;37.07;22.30;;;4.30;1.00;;;;;;8389351;28;20242;-69